РУС

ENG

 
  Pireps - S7
 

Рейс SBI1053

  • Выполнял: Victor Klimovich
  • Аэропорт отправления: Domodedovo Airport (UUDD)
  • Аэропорт назначения: Kazan Mezhdunarodniy (UWKD)
  • Тип ВС: A320-214 (VQ-BES)
  • Время полёта: 01.48
  • Дата полёта: 06.12.2022
  • Маршрут: KOGOM L94 EKPIR M864 INKEB L94 UNORO T788 KOROM
  • Статус: Одобрен

Детали полёта
Gross Revenue:
(132 load / $ 250.00 per unit
$ 33, 000.00
Fuel Cost:
(-443 fuel used @ 5.1 / unit)
($ -2, 259.30)


Дополнительная информация о полёте:

Лог

Aircraft Used in flight is FenixA320_SBIRA73423
06:24 Boarding
06:24 Brakes are On
06:24 Navigation Lights ON at 600 AGL
06:26 In Air Refuel Suspected
06:51 Beacon Lights ON at 600 AGL
06:52 Engine 1 Started
06:52Flaps 2 Selected at 600ft and 0kts
06:53 Engine 2 Started
06:54 Taxi Lights ON at 600 AGL
06:54 Brakes are Released
07:00 Strobe Lights ON at 600 AGL
07:00 Landing Lights ON at 600 AGL
07:01 You Took off @ 144 Knots and Flaps at Position 2
Departure Weather
UUDD 052330Z 21003G08MPS 110V230 CAVOK M10/M14 Q1034 R14R/190050 NOSIG
07:01 Paused
07:01 Unpaused
07:01 Landing Gear Up @ 155 Knots and 700 Feet
07:01 Taxi Lights OFF at 710 AGL
07:02Flaps 1 Selected at 2440ft and 188kts
07:02Flaps Retracted at 2560ft and 196kts
07:05 Landing Lights OFF at 7920 AGL
08:02 Below 10000 feet you are not allowed to go over 250 knots
08:05 Landing Lights ON at 6340 AGL
08:08Flaps 1 Selected at 2460ft and 216kts
08:09Flaps 2 Selected at 2090ft and 194kts
08:09Flaps 3 Selected at 2060ft and 188kts
08:09 Landing Gear Down @ 170 Knots and 1920 Feet
08:09Flaps 4 Selected at 1830ft and 162kts
08:10 Taxi Lights ON at 1750 AGL
08:10Flaps 5 Selected at 1720ft and 143kts
08:12 You Landed @ 130 Knots and with -1200 Vertical Speed
Arrival Weather
UWKD 052300Z VRB01MPS 9000 BKN032 M19/M22 Q1040 R29/810050 NOSIG RMK QFE768/1024
08:12 Your Landing was very hard
08:12 Paused
08:14 Strobe Lights OFF at 310 AGL
08:14 Landing Lights OFF at 310 AGL
08:14Flaps 4 Selected at 310ft and 24kts
08:14Flaps 3 Selected at 310ft and 24kts
08:14Flaps 2 Selected at 310ft and 24kts
08:14Flaps 1 Selected at 310ft and 24kts
08:14Flaps Retracted at 310ft and 24kts
08:18 Unpaused
08:18 Brakes are On
08:18 Engine 1 Stoped
08:18 Engine 2 Stoped
Pirep logged with S7 Tracking 1.0.0.14



Общая оценка полета : 100%




Route Map



 
 
   
 
Новости

09.11.2022 - Discord

Добавляйтесь в наш дискорд канал:

нажми для перехода




   
 
Авторизация






Регистрация

Восстановить пароль?

Мы в соц. сетях

      



   
 





   
 


   
 


Яндекс.Метрика

www.va-s7.ru 2011-2023
Все права защищены.



Минуточку внимания!
Сайт va-s7.ru не является коммерческим проектом. Мы не имеем отношения к торговым маркам "S7" и "Globus" и их представителям.
Эмблемы на сайте являются собственностью соответствующих компаний.

аэронавигационная метеорологическая и любая другая информация с данного ресурса ни в коем случае не должна использоваться для реальных полетов